sensor_id;sensor_type;location;lat;lon;timestamp;temperature;humidity
5009;DHT22;2523;51.058;6.922;2022-12-29T00:02:12;10.30;99.90
5009;DHT22;2523;51.058;6.922;2022-12-29T00:04:38;10.20;99.90
5009;DHT22;2523;51.058;6.922;2022-12-29T00:07:04;10.20;99.90
5009;DHT22;2523;51.058;6.922;2022-12-29T00:09:30;10.20;99.90
5009;DHT22;2523;51.058;6.922;2022-12-29T00:11:57;10.20;99.90
5009;DHT22;2523;51.058;6.922;2022-12-29T00:14:22;10.20;99.90
5009;DHT22;2523;51.058;6.922;2022-12-29T00:17:07;10.20;99.90
5009;DHT22;2523;51.058;6.922;2022-12-29T00:19:32;10.20;99.90
5009;DHT22;2523;51.058;6.922;2022-12-29T00:22:17;10.20;99.90
5009;DHT22;2523;51.058;6.922;2022-12-29T00:25:02;10.20;99.90
5009;DHT22;2523;51.058;6.922;2022-12-29T00:27:46;10.20;99.90
5009;DHT22;2523;51.058;6.922;2022-12-29T00:30:30;10.20;99.90
5009;DHT22;2523;51.058;6.922;2022-12-29T00:33:16;10.20;99.90
5009;DHT22;2523;51.058;6.922;2022-12-29T00:36:09;10.20;99.90
5009;DHT22;2523;51.058;6.922;2022-12-29T00:38:39;10.30;99.90
5009;DHT22;2523;51.058;6.922;2022-12-29T00:41:26;10.30;99.90
5009;DHT22;2523;51.058;6.922;2022-12-29T00:44:12;10.30;99.90
5009;DHT22;2523;51.058;6.922;2022-12-29T00:46:40;10.30;99.90
5009;DHT22;2523;51.058;6.922;2022-12-29T00:49:07;10.40;99.90
5009;DHT22;2523;51.058;6.922;2022-12-29T00:51:52;10.40;99.90
5009;DHT22;2523;51.058;6.922;2022-12-29T00:54:18;10.40;99.90
5009;DHT22;2523;51.058;6.922;2022-12-29T00:56:49;10.40;99.90
5009;DHT22;2523;51.058;6.922;2022-12-29T00:59:15;10.50;99.90
5009;DHT22;2523;51.058;6.922;2022-12-29T01:01:41;10.40;99.90
5009;DHT22;2523;51.058;6.922;2022-12-29T01:04:07;10.50;99.90
5009;DHT22;2523;51.058;6.922;2022-12-29T01:06:35;10.50;99.90
5009;DHT22;2523;51.058;6.922;2022-12-29T01:09:00;10.50;99.90
5009;DHT22;2523;51.058;6.922;2022-12-29T01:11:44;10.50;99.90
5009;DHT22;2523;51.058;6.922;2022-12-29T01:14:10;10.50;99.90
5009;DHT22;2523;51.058;6.922;2022-12-29T01:16:36;10.60;99.90
5009;DHT22;2523;51.058;6.922;2022-12-29T01:19:02;10.50;99.90
5009;DHT22;2523;51.058;6.922;2022-12-29T01:21:28;10.50;99.90
5009;DHT22;2523;51.058;6.922;2022-12-29T01:23:53;10.40;99.90
5009;DHT22;2523;51.058;6.922;2022-12-29T01:26:19;10.40;99.90
5009;DHT22;2523;51.058;6.922;2022-12-29T01:28:45;10.40;99.90
5009;DHT22;2523;51.058;6.922;2022-12-29T01:31:12;10.50;99.90
5009;DHT22;2523;51.058;6.922;2022-12-29T01:33:38;10.60;99.90
5009;DHT22;2523;51.058;6.922;2022-12-29T01:36:12;10.60;99.90
5009;DHT22;2523;51.058;6.922;2022-12-29T01:38:38;10.60;99.90
5009;DHT22;2523;51.058;6.922;2022-12-29T01:41:05;10.60;99.90
5009;DHT22;2523;51.058;6.922;2022-12-29T01:43:52;10.70;99.90
5009;DHT22;2523;51.058;6.922;2022-12-29T01:46:30;10.70;99.90
5009;DHT22;2523;51.058;6.922;2022-12-29T01:49:18;10.90;99.90
5009;DHT22;2523;51.058;6.922;2022-12-29T01:51:48;10.90;99.90
5009;DHT22;2523;51.058;6.922;2022-12-29T01:54:41;11.00;99.90
5009;DHT22;2523;51.058;6.922;2022-12-29T01:57:09;11.00;99.90
5009;DHT22;2523;51.058;6.922;2022-12-29T01:59:43;11.00;99.90
5009;DHT22;2523;51.058;6.922;2022-12-29T02:02:10;11.00;99.90
5009;DHT22;2523;51.058;6.922;2022-12-29T02:04:40;11.10;99.90
5009;DHT22;2523;51.058;6.922;2022-12-29T02:07:14;11.20;99.90
5009;DHT22;2523;51.058;6.922;2022-12-29T02:09:42;11.20;99.90
5009;DHT22;2523;51.058;6.922;2022-12-29T02:12:07;11.40;99.90
5009;DHT22;2523;51.058;6.922;2022-12-29T02:14:33;11.40;99.90
5009;DHT22;2523;51.058;6.922;2022-12-29T02:19:49;11.50;99.90
5009;DHT22;2523;51.058;6.922;2022-12-29T02:22:32;11.40;99.90
5009;DHT22;2523;51.058;6.922;2022-12-29T02:30:45;11.60;99.90
5009;DHT22;2523;51.058;6.922;2022-12-29T02:33:33;11.60;99.90
5009;DHT22;2523;51.058;6.922;2022-12-29T02:44:47;11.90;99.90
5009;DHT22;2523;51.058;6.922;2022-12-29T02:47:56;11.90;99.90
5009;DHT22;2523;51.058;6.922;2022-12-29T02:53:11;11.80;99.90
5009;DHT22;2523;51.058;6.922;2022-12-29T02:55:38;11.80;99.90
5009;DHT22;2523;51.058;6.922;2022-12-29T02:58:15;11.80;99.90
5009;DHT22;2523;51.058;6.922;2022-12-29T03:03:31;11.60;99.90
5009;DHT22;2523;51.058;6.922;2022-12-29T03:09:25;11.60;99.90
5009;DHT22;2523;51.058;6.922;2022-12-29T03:15:04;11.50;99.90
5009;DHT22;2523;51.058;6.922;2022-12-29T03:18:23;11.50;99.90
5009;DHT22;2523;51.058;6.922;2022-12-29T03:20:57;11.60;99.90
5009;DHT22;2523;51.058;6.922;2022-12-29T03:23:27;11.50;99.90
5009;DHT22;2523;51.058;6.922;2022-12-29T03:25:56;11.50;99.90
5009;DHT22;2523;51.058;6.922;2022-12-29T03:28:26;11.50;99.90
5009;DHT22;2523;51.058;6.922;2022-12-29T03:30:54;11.40;99.90
5009;DHT22;2523;51.058;6.922;2022-12-29T03:33:25;11.40;99.90
5009;DHT22;2523;51.058;6.922;2022-12-29T03:35:55;11.40;99.90
5009;DHT22;2523;51.058;6.922;2022-12-29T03:38:45;11.50;99.90
5009;DHT22;2523;51.058;6.922;2022-12-29T03:41:17;11.40;99.90
5009;DHT22;2523;51.058;6.922;2022-12-29T03:43:43;11.40;99.90
5009;DHT22;2523;51.058;6.922;2022-12-29T03:46:09;11.50;99.90
5009;DHT22;2523;51.058;6.922;2022-12-29T03:48:34;11.50;99.90
5009;DHT22;2523;51.058;6.922;2022-12-29T03:51:00;11.40;99.90
5009;DHT22;2523;51.058;6.922;2022-12-29T03:53:25;11.40;99.90
5009;DHT22;2523;51.058;6.922;2022-12-29T03:55:51;11.40;99.90
5009;DHT22;2523;51.058;6.922;2022-12-29T03:58:16;11.40;99.90
5009;DHT22;2523;51.058;6.922;2022-12-29T04:00:42;11.40;99.90
5009;DHT22;2523;51.058;6.922;2022-12-29T04:03:07;11.40;99.90
5009;DHT22;2523;51.058;6.922;2022-12-29T04:05:33;11.50;99.90
5009;DHT22;2523;51.058;6.922;2022-12-29T04:07:59;11.50;99.90
5009;DHT22;2523;51.058;6.922;2022-12-29T04:10:25;11.50;99.90
5009;DHT22;2523;51.058;6.922;2022-12-29T04:12:50;11.50;99.90
5009;DHT22;2523;51.058;6.922;2022-12-29T04:15:16;11.50;99.90
5009;DHT22;2523;51.058;6.922;2022-12-29T04:17:41;11.50;99.90
5009;DHT22;2523;51.058;6.922;2022-12-29T04:20:07;11.50;99.90
5009;DHT22;2523;51.058;6.922;2022-12-29T04:23:05;11.50;99.90
5009;DHT22;2523;51.058;6.922;2022-12-29T04:25:32;11.50;99.90
5009;DHT22;2523;51.058;6.922;2022-12-29T04:27:58;11.40;99.90
5009;DHT22;2523;51.058;6.922;2022-12-29T04:30:23;11.30;99.90
5009;DHT22;2523;51.058;6.922;2022-12-29T04:32:49;11.30;99.90
5009;DHT22;2523;51.058;6.922;2022-12-29T04:35:15;11.30;99.90
5009;DHT22;2523;51.058;6.922;2022-12-29T04:37:40;11.30;99.90
5009;DHT22;2523;51.058;6.922;2022-12-29T04:40:06;11.30;99.90
5009;DHT22;2523;51.058;6.922;2022-12-29T04:42:32;11.40;99.90
5009;DHT22;2523;51.058;6.922;2022-12-29T04:44:57;11.40;99.90
5009;DHT22;2523;51.058;6.922;2022-12-29T04:47:23;11.50;99.90
5009;DHT22;2523;51.058;6.922;2022-12-29T04:49:48;11.50;99.90
5009;DHT22;2523;51.058;6.922;2022-12-29T04:52:14;11.60;99.90
5009;DHT22;2523;51.058;6.922;2022-12-29T04:54:39;11.60;99.90
5009;DHT22;2523;51.058;6.922;2022-12-29T04:57:05;11.60;99.90
5009;DHT22;2523;51.058;6.922;2022-12-29T04:59:31;11.50;99.90
5009;DHT22;2523;51.058;6.922;2022-12-29T05:01:56;11.50;99.90
5009;DHT22;2523;51.058;6.922;2022-12-29T05:04:22;11.60;99.90
5009;DHT22;2523;51.058;6.922;2022-12-29T05:06:47;11.60;99.90
5009;DHT22;2523;51.058;6.922;2022-12-29T05:09:13;11.70;99.90
5009;DHT22;2523;51.058;6.922;2022-12-29T05:11:39;11.70;99.90
5009;DHT22;2523;51.058;6.922;2022-12-29T05:14:04;11.70;99.90
5009;DHT22;2523;51.058;6.922;2022-12-29T05:16:30;11.80;99.90
5009;DHT22;2523;51.058;6.922;2022-12-29T05:18:55;11.80;99.90
5009;DHT22;2523;51.058;6.922;2022-12-29T05:21:21;11.80;99.90
5009;DHT22;2523;51.058;6.922;2022-12-29T05:23:46;11.70;99.90
5009;DHT22;2523;51.058;6.922;2022-12-29T05:26:12;11.80;99.90
5009;DHT22;2523;51.058;6.922;2022-12-29T05:28:37;11.90;99.90
5009;DHT22;2523;51.058;6.922;2022-12-29T05:31:03;12.00;99.90
5009;DHT22;2523;51.058;6.922;2022-12-29T05:33:28;12.10;99.90
5009;DHT22;2523;51.058;6.922;2022-12-29T05:35:54;12.20;99.90
5009;DHT22;2523;51.058;6.922;2022-12-29T05:38:19;12.10;99.90
5009;DHT22;2523;51.058;6.922;2022-12-29T05:40:45;12.10;99.90
5009;DHT22;2523;51.058;6.922;2022-12-29T05:43:10;12.20;99.90
5009;DHT22;2523;51.058;6.922;2022-12-29T05:45:36;12.10;99.90
5009;DHT22;2523;51.058;6.922;2022-12-29T05:48:02;12.10;99.90
5009;DHT22;2523;51.058;6.922;2022-12-29T05:50:28;12.00;99.90
5009;DHT22;2523;51.058;6.922;2022-12-29T05:52:53;12.00;99.90
5009;DHT22;2523;51.058;6.922;2022-12-29T05:55:19;12.00;99.90
5009;DHT22;2523;51.058;6.922;2022-12-29T05:57:44;12.00;99.90
5009;DHT22;2523;51.058;6.922;2022-12-29T06:00:10;12.00;99.90
5009;DHT22;2523;51.058;6.922;2022-12-29T06:02:36;12.10;99.90
5009;DHT22;2523;51.058;6.922;2022-12-29T06:05:01;12.10;99.90
5009;DHT22;2523;51.058;6.922;2022-12-29T06:07:27;12.00;99.90
5009;DHT22;2523;51.058;6.922;2022-12-29T06:09:53;12.00;99.90
5009;DHT22;2523;51.058;6.922;2022-12-29T06:12:18;12.10;99.90
5009;DHT22;2523;51.058;6.922;2022-12-29T06:14:44;12.00;99.90
5009;DHT22;2523;51.058;6.922;2022-12-29T06:17:09;12.00;99.90
5009;DHT22;2523;51.058;6.922;2022-12-29T06:19:35;11.90;99.90
5009;DHT22;2523;51.058;6.922;2022-12-29T06:22:00;12.00;99.90
5009;DHT22;2523;51.058;6.922;2022-12-29T06:24:26;12.00;99.90
5009;DHT22;2523;51.058;6.922;2022-12-29T06:26:51;12.00;99.90
5009;DHT22;2523;51.058;6.922;2022-12-29T06:29:17;12.00;99.90
5009;DHT22;2523;51.058;6.922;2022-12-29T06:31:44;12.00;99.90
5009;DHT22;2523;51.058;6.922;2022-12-29T06:34:11;11.90;99.90
5009;DHT22;2523;51.058;6.922;2022-12-29T06:36:37;11.90;99.90
5009;DHT22;2523;51.058;6.922;2022-12-29T06:39:03;11.90;99.90
5009;DHT22;2523;51.058;6.922;2022-12-29T06:41:28;11.80;99.90
5009;DHT22;2523;51.058;6.922;2022-12-29T06:43:54;11.90;99.90
5009;DHT22;2523;51.058;6.922;2022-12-29T06:46:19;11.90;99.90
5009;DHT22;2523;51.058;6.922;2022-12-29T06:48:45;11.80;99.90
5009;DHT22;2523;51.058;6.922;2022-12-29T06:51:10;11.90;99.90
5009;DHT22;2523;51.058;6.922;2022-12-29T06:53:36;11.80;99.90
5009;DHT22;2523;51.058;6.922;2022-12-29T06:56:02;11.70;99.90
5009;DHT22;2523;51.058;6.922;2022-12-29T06:58:27;11.70;99.90
5009;DHT22;2523;51.058;6.922;2022-12-29T07:00:53;11.60;99.90
5009;DHT22;2523;51.058;6.922;2022-12-29T07:03:18;11.70;99.90
5009;DHT22;2523;51.058;6.922;2022-12-29T07:05:44;11.70;99.90
5009;DHT22;2523;51.058;6.922;2022-12-29T07:08:09;11.70;99.90
5009;DHT22;2523;51.058;6.922;2022-12-29T07:10:35;11.80;99.90
5009;DHT22;2523;51.058;6.922;2022-12-29T07:13:00;11.90;99.90
5009;DHT22;2523;51.058;6.922;2022-12-29T07:15:26;11.80;99.90
5009;DHT22;2523;51.058;6.922;2022-12-29T07:17:52;11.80;99.90
5009;DHT22;2523;51.058;6.922;2022-12-29T07:20:17;11.80;99.90
5009;DHT22;2523;51.058;6.922;2022-12-29T07:22:43;11.70;99.90
5009;DHT22;2523;51.058;6.922;2022-12-29T07:25:09;11.70;99.90
5009;DHT22;2523;51.058;6.922;2022-12-29T07:27:34;11.70;99.90
5009;DHT22;2523;51.058;6.922;2022-12-29T07:30:00;11.80;99.90
5009;DHT22;2523;51.058;6.922;2022-12-29T07:32:25;11.70;99.90
5009;DHT22;2523;51.058;6.922;2022-12-29T07:34:51;11.70;99.90
5009;DHT22;2523;51.058;6.922;2022-12-29T07:37:17;11.60;99.90
5009;DHT22;2523;51.058;6.922;2022-12-29T07:39:43;11.70;99.90
5009;DHT22;2523;51.058;6.922;2022-12-29T07:42:09;11.60;99.90
5009;DHT22;2523;51.058;6.922;2022-12-29T07:44:34;11.60;99.90
5009;DHT22;2523;51.058;6.922;2022-12-29T07:47:01;11.50;99.90
5009;DHT22;2523;51.058;6.922;2022-12-29T07:49:27;11.50;99.90
5009;DHT22;2523;51.058;6.922;2022-12-29T07:51:52;11.50;99.90
5009;DHT22;2523;51.058;6.922;2022-12-29T07:54:18;11.60;99.90
5009;DHT22;2523;51.058;6.922;2022-12-29T07:56:44;11.60;99.90
5009;DHT22;2523;51.058;6.922;2022-12-29T07:59:10;11.60;99.90
5009;DHT22;2523;51.058;6.922;2022-12-29T08:01:37;11.50;99.90
5009;DHT22;2523;51.058;6.922;2022-12-29T08:04:03;11.50;99.90
5009;DHT22;2523;51.058;6.922;2022-12-29T08:06:28;11.50;99.90
5009;DHT22;2523;51.058;6.922;2022-12-29T08:08:56;11.50;99.90
5009;DHT22;2523;51.058;6.922;2022-12-29T08:11:21;11.50;99.90
5009;DHT22;2523;51.058;6.922;2022-12-29T08:13:47;11.50;99.90
5009;DHT22;2523;51.058;6.922;2022-12-29T08:16:13;11.50;99.90
5009;DHT22;2523;51.058;6.922;2022-12-29T08:18:38;11.40;99.90
5009;DHT22;2523;51.058;6.922;2022-12-29T08:21:04;11.30;99.90
5009;DHT22;2523;51.058;6.922;2022-12-29T08:23:30;11.40;99.90
5009;DHT22;2523;51.058;6.922;2022-12-29T08:26:00;11.30;99.90
5009;DHT22;2523;51.058;6.922;2022-12-29T08:28:26;11.30;99.90
5009;DHT22;2523;51.058;6.922;2022-12-29T08:30:52;11.30;99.90
5009;DHT22;2523;51.058;6.922;2022-12-29T08:33:17;11.30;99.90
5009;DHT22;2523;51.058;6.922;2022-12-29T08:35:43;11.20;99.90
5009;DHT22;2523;51.058;6.922;2022-12-29T08:38:08;11.30;99.90
5009;DHT22;2523;51.058;6.922;2022-12-29T08:40:36;11.30;99.90
5009;DHT22;2523;51.058;6.922;2022-12-29T08:43:02;11.30;99.90
5009;DHT22;2523;51.058;6.922;2022-12-29T08:45:27;11.30;99.90
5009;DHT22;2523;51.058;6.922;2022-12-29T08:47:53;11.30;99.90
5009;DHT22;2523;51.058;6.922;2022-12-29T08:50:18;11.30;99.90
5009;DHT22;2523;51.058;6.922;2022-12-29T08:52:44;11.30;99.90
5009;DHT22;2523;51.058;6.922;2022-12-29T08:55:09;11.30;99.90
5009;DHT22;2523;51.058;6.922;2022-12-29T08:57:35;11.30;99.90
5009;DHT22;2523;51.058;6.922;2022-12-29T09:00:00;11.30;99.90
5009;DHT22;2523;51.058;6.922;2022-12-29T09:02:26;11.30;99.90
5009;DHT22;2523;51.058;6.922;2022-12-29T09:04:52;11.30;99.90
5009;DHT22;2523;51.058;6.922;2022-12-29T09:07:17;11.40;99.90
5009;DHT22;2523;51.058;6.922;2022-12-29T09:09:43;11.40;99.90
5009;DHT22;2523;51.058;6.922;2022-12-29T09:12:08;11.40;99.90
5009;DHT22;2523;51.058;6.922;2022-12-29T09:14:34;11.50;99.90
5009;DHT22;2523;51.058;6.922;2022-12-29T09:16:59;11.60;99.90
5009;DHT22;2523;51.058;6.922;2022-12-29T09:19:43;11.60;99.90
5009;DHT22;2523;51.058;6.922;2022-12-29T09:22:09;11.60;99.90
5009;DHT22;2523;51.058;6.922;2022-12-29T09:24:34;11.60;99.90
5009;DHT22;2523;51.058;6.922;2022-12-29T09:27:00;11.70;99.90
5009;DHT22;2523;51.058;6.922;2022-12-29T09:29:26;11.80;99.90
5009;DHT22;2523;51.058;6.922;2022-12-29T09:31:51;12.10;99.90
5009;DHT22;2523;51.058;6.922;2022-12-29T09:34:17;12.10;99.90
5009;DHT22;2523;51.058;6.922;2022-12-29T09:36:42;12.10;99.90
5009;DHT22;2523;51.058;6.922;2022-12-29T09:39:08;12.50;99.90
5009;DHT22;2523;51.058;6.922;2022-12-29T09:41:46;12.80;99.90
5009;DHT22;2523;51.058;6.922;2022-12-29T09:44:28;13.20;99.90
5009;DHT22;2523;51.058;6.922;2022-12-29T09:46:57;13.30;99.90
5009;DHT22;2523;51.058;6.922;2022-12-29T09:49:40;13.30;99.90
5009;DHT22;2523;51.058;6.922;2022-12-29T09:52:26;13.70;99.90
5009;DHT22;2523;51.058;6.922;2022-12-29T09:55:12;14.40;99.90
5009;DHT22;2523;51.058;6.922;2022-12-29T09:57:58;15.80;79.80
5009;DHT22;2523;51.058;6.922;2022-12-29T10:00:47;15.90;58.90
5009;DHT22;2523;51.058;6.922;2022-12-29T10:03:16;15.70;65.30
5009;DHT22;2523;51.058;6.922;2022-12-29T10:10:59;15.10;74.00
5009;DHT22;2523;51.058;6.922;2022-12-29T10:19:37;14.10;96.50
5009;DHT22;2523;51.058;6.922;2022-12-29T10:25:00;14.50;88.00
5009;DHT22;2523;51.058;6.922;2022-12-29T10:27:31;14.10;92.90
5009;DHT22;2523;51.058;6.922;2022-12-29T10:29:58;13.50;99.90
5009;DHT22;2523;51.058;6.922;2022-12-29T10:32:34;13.50;99.90
5009;DHT22;2523;51.058;6.922;2022-12-29T10:35:19;13.70;99.90
5009;DHT22;2523;51.058;6.922;2022-12-29T10:37:58;13.30;99.90
5009;DHT22;2523;51.058;6.922;2022-12-29T10:40:38;13.30;99.90
5009;DHT22;2523;51.058;6.922;2022-12-29T10:43:26;13.90;99.90
5009;DHT22;2523;51.058;6.922;2022-12-29T10:45:56;13.70;99.80
5009;DHT22;2523;51.058;6.922;2022-12-29T10:48:33;13.40;99.90
5009;DHT22;2523;51.058;6.922;2022-12-29T10:51:01;13.10;99.90
5009;DHT22;2523;51.058;6.922;2022-12-29T10:53:45;12.70;99.90
5009;DHT22;2523;51.058;6.922;2022-12-29T10:58:50;12.60;99.90
5009;DHT22;2523;51.058;6.922;2022-12-29T11:01:17;12.50;99.90
5009;DHT22;2523;51.058;6.922;2022-12-29T11:04:33;13.30;99.90
5009;DHT22;2523;51.058;6.922;2022-12-29T11:06:38;14.40;94.00
5009;DHT22;2523;51.058;6.922;2022-12-29T11:09:15;14.30;98.20
5009;DHT22;2523;51.058;6.922;2022-12-29T11:11:41;14.40;99.90
5009;DHT22;2523;51.058;6.922;2022-12-29T11:14:14;15.30;84.40
5009;DHT22;2523;51.058;6.922;2022-12-29T11:16:40;14.70;90.40
5009;DHT22;2523;51.058;6.922;2022-12-29T11:19:20;14.10;99.00
5009;DHT22;2523;51.058;6.922;2022-12-29T11:21:46;13.40;99.90
5009;DHT22;2523;51.058;6.922;2022-12-29T11:24:44;13.10;99.90
5009;DHT22;2523;51.058;6.922;2022-12-29T11:27:22;13.10;99.90
5009;DHT22;2523;51.058;6.922;2022-12-29T11:29:50;12.90;99.90
5009;DHT22;2523;51.058;6.922;2022-12-29T11:32:24;13.80;99.90
5009;DHT22;2523;51.058;6.922;2022-12-29T11:34:50;14.20;99.90
5009;DHT22;2523;51.058;6.922;2022-12-29T11:42:42;12.90;99.90
5009;DHT22;2523;51.058;6.922;2022-12-29T11:47:44;12.30;99.90
5009;DHT22;2523;51.058;6.922;2022-12-29T11:50:20;12.20;99.90
5009;DHT22;2523;51.058;6.922;2022-12-29T11:52:48;12.10;99.90
5009;DHT22;2523;51.058;6.922;2022-12-29T11:55:20;12.00;99.90
5009;DHT22;2523;51.058;6.922;2022-12-29T11:57:48;12.00;99.90
5009;DHT22;2523;51.058;6.922;2022-12-29T12:00:20;11.90;99.90
5009;DHT22;2523;51.058;6.922;2022-12-29T12:03:05;11.90;99.90
5009;DHT22;2523;51.058;6.922;2022-12-29T12:05:47;11.90;99.90
5009;DHT22;2523;51.058;6.922;2022-12-29T12:11:08;11.80;99.90
5009;DHT22;2523;51.058;6.922;2022-12-29T12:13:52;11.70;99.90
5009;DHT22;2523;51.058;6.922;2022-12-29T12:16:24;11.70;99.90
5009;DHT22;2523;51.058;6.922;2022-12-29T12:19:41;11.70;99.90
5009;DHT22;2523;51.058;6.922;2022-12-29T12:21:43;11.70;99.90
5009;DHT22;2523;51.058;6.922;2022-12-29T12:29:22;11.70;99.90
5009;DHT22;2523;51.058;6.922;2022-12-29T12:31:55;11.70;99.90
5009;DHT22;2523;51.058;6.922;2022-12-29T12:34:30;11.70;99.90
5009;DHT22;2523;51.058;6.922;2022-12-29T12:48:58;11.80;99.90
5009;DHT22;2523;51.058;6.922;2022-12-29T12:51:35;11.80;99.90
5009;DHT22;2523;51.058;6.922;2022-12-29T13:00:02;11.70;99.90
5009;DHT22;2523;51.058;6.922;2022-12-29T13:03:01;11.80;99.90
5009;DHT22;2523;51.058;6.922;2022-12-29T13:08:37;11.70;99.90
5009;DHT22;2523;51.058;6.922;2022-12-29T13:14:24;11.70;99.90
5009;DHT22;2523;51.058;6.922;2022-12-29T13:17:19;11.70;99.90
5009;DHT22;2523;51.058;6.922;2022-12-29T13:22:50;11.60;99.90
5009;DHT22;2523;51.058;6.922;2022-12-29T13:25:27;11.70;99.90
5009;DHT22;2523;51.058;6.922;2022-12-29T13:28:03;11.60;99.90
5009;DHT22;2523;51.058;6.922;2022-12-29T13:36:25;11.50;99.90
5009;DHT22;2523;51.058;6.922;2022-12-29T13:41:32;11.50;99.90
5009;DHT22;2523;51.058;6.922;2022-12-29T13:44:01;11.50;99.90
5009;DHT22;2523;51.058;6.922;2022-12-29T13:46:32;11.50;99.90
5009;DHT22;2523;51.058;6.922;2022-12-29T13:49:06;11.50;99.90
5009;DHT22;2523;51.058;6.922;2022-12-29T13:51:33;11.50;99.90
5009;DHT22;2523;51.058;6.922;2022-12-29T13:54:35;11.40;99.90
5009;DHT22;2523;51.058;6.922;2022-12-29T14:02:31;11.40;99.90
5009;DHT22;2523;51.058;6.922;2022-12-29T14:05:03;11.30;99.90
5009;DHT22;2523;51.058;6.922;2022-12-29T14:07:29;11.30;99.90
5009;DHT22;2523;51.058;6.922;2022-12-29T14:10:00;11.30;99.90
5009;DHT22;2523;51.058;6.922;2022-12-29T14:12:35;11.30;99.90
5009;DHT22;2523;51.058;6.922;2022-12-29T14:15:06;11.30;99.90
5009;DHT22;2523;51.058;6.922;2022-12-29T14:17:40;11.30;99.90
5009;DHT22;2523;51.058;6.922;2022-12-29T14:20:17;11.20;99.90
5009;DHT22;2523;51.058;6.922;2022-12-29T14:23:14;11.20;99.90
5009;DHT22;2523;51.058;6.922;2022-12-29T14:28:37;11.20;99.90
5009;DHT22;2523;51.058;6.922;2022-12-29T14:31:07;11.20;99.90
5009;DHT22;2523;51.058;6.922;2022-12-29T14:36:54;11.20;99.90
5009;DHT22;2523;51.058;6.922;2022-12-29T14:44:30;11.10;99.90
5009;DHT22;2523;51.058;6.922;2022-12-29T14:46:59;11.10;99.90
5009;DHT22;2523;51.058;6.922;2022-12-29T14:49:31;11.00;99.90
5009;DHT22;2523;51.058;6.922;2022-12-29T14:54:51;11.00;99.90
5009;DHT22;2523;51.058;6.922;2022-12-29T15:02:42;11.10;99.90
5009;DHT22;2523;51.058;6.922;2022-12-29T15:05:32;11.10;99.90
5009;DHT22;2523;51.058;6.922;2022-12-29T15:07:58;11.00;99.90
5009;DHT22;2523;51.058;6.922;2022-12-29T15:10:26;11.10;99.90
5009;DHT22;2523;51.058;6.922;2022-12-29T15:13:03;11.10;99.90
5009;DHT22;2523;51.058;6.922;2022-12-29T15:15:36;11.00;99.90
5009;DHT22;2523;51.058;6.922;2022-12-29T15:18:14;11.00;99.90
5009;DHT22;2523;51.058;6.922;2022-12-29T15:20:42;10.90;99.90
5009;DHT22;2523;51.058;6.922;2022-12-29T15:23:11;10.90;99.90
5009;DHT22;2523;51.058;6.922;2022-12-29T15:25:57;10.90;99.90
5009;DHT22;2523;51.058;6.922;2022-12-29T15:28:24;10.90;99.90
5009;DHT22;2523;51.058;6.922;2022-12-29T15:30:56;10.90;99.90
5009;DHT22;2523;51.058;6.922;2022-12-29T15:33:25;10.80;99.90
5009;DHT22;2523;51.058;6.922;2022-12-29T15:35:54;10.80;99.90
5009;DHT22;2523;51.058;6.922;2022-12-29T15:38:25;10.80;99.90
5009;DHT22;2523;51.058;6.922;2022-12-29T15:40:58;10.80;99.90
5009;DHT22;2523;51.058;6.922;2022-12-29T15:46:11;10.70;99.90
5009;DHT22;2523;51.058;6.922;2022-12-29T15:48:38;10.70;99.90
5009;DHT22;2523;51.058;6.922;2022-12-29T15:51:20;10.70;99.90
5009;DHT22;2523;51.058;6.922;2022-12-29T15:53:48;10.70;99.90
5009;DHT22;2523;51.058;6.922;2022-12-29T15:56:15;10.70;99.90
5009;DHT22;2523;51.058;6.922;2022-12-29T15:58:46;10.70;99.90
5009;DHT22;2523;51.058;6.922;2022-12-29T16:01:30;10.60;99.90
5009;DHT22;2523;51.058;6.922;2022-12-29T16:03:57;10.60;99.90
5009;DHT22;2523;51.058;6.922;2022-12-29T16:06:32;10.60;99.90
5009;DHT22;2523;51.058;6.922;2022-12-29T16:09:45;10.50;99.90
5009;DHT22;2523;51.058;6.922;2022-12-29T16:11:57;10.50;99.90
5009;DHT22;2523;51.058;6.922;2022-12-29T16:17:01;10.30;99.90
5009;DHT22;2523;51.058;6.922;2022-12-29T16:19:35;10.30;99.90
5009;DHT22;2523;51.058;6.922;2022-12-29T16:22:03;10.20;99.90
5009;DHT22;2523;51.058;6.922;2022-12-29T16:24:37;10.20;99.90
5009;DHT22;2523;51.058;6.922;2022-12-29T16:27:09;10.20;99.90
5009;DHT22;2523;51.058;6.922;2022-12-29T16:29:35;10.10;99.90
5009;DHT22;2523;51.058;6.922;2022-12-29T16:32:02;10.20;99.90
5009;DHT22;2523;51.058;6.922;2022-12-29T16:34:46;10.10;99.90
5009;DHT22;2523;51.058;6.922;2022-12-29T16:37:35;10.10;99.90
5009;DHT22;2523;51.058;6.922;2022-12-29T16:42:48;10.00;99.90
5009;DHT22;2523;51.058;6.922;2022-12-29T16:48:19;10.00;99.90
5009;DHT22;2523;51.058;6.922;2022-12-29T16:50:45;10.00;99.90
5009;DHT22;2523;51.058;6.922;2022-12-29T16:53:25;10.00;99.90
5009;DHT22;2523;51.058;6.922;2022-12-29T16:55:52;10.00;99.90
5009;DHT22;2523;51.058;6.922;2022-12-29T16:58:21;9.90;99.90
5009;DHT22;2523;51.058;6.922;2022-12-29T17:00:48;10.00;99.90
5009;DHT22;2523;51.058;6.922;2022-12-29T17:03:15;10.00;99.90
5009;DHT22;2523;51.058;6.922;2022-12-29T17:05:41;9.90;99.90
5009;DHT22;2523;51.058;6.922;2022-12-29T17:08:20;9.90;99.90
5009;DHT22;2523;51.058;6.922;2022-12-29T17:10:54;9.90;99.90
5009;DHT22;2523;51.058;6.922;2022-12-29T17:13:39;9.90;99.90
5009;DHT22;2523;51.058;6.922;2022-12-29T17:16:09;9.90;99.90
5009;DHT22;2523;51.058;6.922;2022-12-29T17:18:36;9.90;99.90
5009;DHT22;2523;51.058;6.922;2022-12-29T17:21:04;10.00;99.90
5009;DHT22;2523;51.058;6.922;2022-12-29T17:23:32;9.90;99.90
5009;DHT22;2523;51.058;6.922;2022-12-29T17:25:58;9.90;99.90
5009;DHT22;2523;51.058;6.922;2022-12-29T17:28:25;9.90;99.90
5009;DHT22;2523;51.058;6.922;2022-12-29T17:30:58;9.90;99.90
5009;DHT22;2523;51.058;6.922;2022-12-29T17:33:24;9.80;99.90
5009;DHT22;2523;51.058;6.922;2022-12-29T17:35:50;9.80;99.90
5009;DHT22;2523;51.058;6.922;2022-12-29T17:38:21;9.90;99.90
5009;DHT22;2523;51.058;6.922;2022-12-29T17:40:48;9.80;99.90
5009;DHT22;2523;51.058;6.922;2022-12-29T17:43:15;9.80;99.90
5009;DHT22;2523;51.058;6.922;2022-12-29T17:45:42;9.80;99.90
5009;DHT22;2523;51.058;6.922;2022-12-29T17:48:15;9.80;99.90
5009;DHT22;2523;51.058;6.922;2022-12-29T17:50:42;9.80;99.90
5009;DHT22;2523;51.058;6.922;2022-12-29T17:53:22;9.80;99.90
5009;DHT22;2523;51.058;6.922;2022-12-29T17:55:48;9.80;99.90
5009;DHT22;2523;51.058;6.922;2022-12-29T17:58:21;9.80;99.90
5009;DHT22;2523;51.058;6.922;2022-12-29T18:00:49;9.80;99.90
5009;DHT22;2523;51.058;6.922;2022-12-29T18:03:18;9.80;99.90
5009;DHT22;2523;51.058;6.922;2022-12-29T18:05:45;9.80;99.90
5009;DHT22;2523;51.058;6.922;2022-12-29T18:08:11;9.80;99.90
5009;DHT22;2523;51.058;6.922;2022-12-29T18:10:37;9.80;99.90
5009;DHT22;2523;51.058;6.922;2022-12-29T18:13:03;9.80;99.90
5009;DHT22;2523;51.058;6.922;2022-12-29T18:15:32;9.80;99.90
5009;DHT22;2523;51.058;6.922;2022-12-29T18:18:13;9.80;99.90
5009;DHT22;2523;51.058;6.922;2022-12-29T18:20:40;9.70;99.90
5009;DHT22;2523;51.058;6.922;2022-12-29T18:23:22;9.60;99.90
5009;DHT22;2523;51.058;6.922;2022-12-29T18:25:55;9.50;99.90
5009;DHT22;2523;51.058;6.922;2022-12-29T18:28:23;9.50;99.90
5009;DHT22;2523;51.058;6.922;2022-12-29T18:30:49;9.40;99.90
5009;DHT22;2523;51.058;6.922;2022-12-29T18:33:16;9.40;99.90
5009;DHT22;2523;51.058;6.922;2022-12-29T18:35:55;9.40;99.90
5009;DHT22;2523;51.058;6.922;2022-12-29T18:38:21;9.30;99.90